Time;durP1;ratioP1;P1;durP2;ratioP2;P2;SDS_P1;SDS_P2;PMS_P1;PMS_P2;Temp;Humidity;BMP_temperature;BMP_pressure;BME280_temperature;BME280_humidity;BME280_pressure;Samples;Min_cycle;Max_cycle;Signal;HPM_P1;HPM_P2
2022/12/05 00:01:21;;;;;;;11.77;6.05;;;;;;;;;;5081606;28;20458;-78
2022/12/05 00:03:48;;;;;;;11.25;5.75;;;;;;;;;;5077550;28;20028;-78
2022/12/05 00:06:14;;;;;;;12.25;6.35;;;;;;;;;;5065668;28;20028;-78
2022/12/05 00:08:40;;;;;;;11.10;6.30;;;;;;;;;;5065186;28;20024;-78
2022/12/05 00:11:16;;;;;;;12.50;7.07;;;;;;;;;;5068909;28;20024;-78
2022/12/05 00:13:42;;;;;;;13.88;7.38;;;;;;;;;;5066637;28;20486;-78
2022/12/05 00:16:13;;;;;;;10.32;6.70;;;;;;;;;;5077547;28;20031;-77
2022/12/05 00:18:39;;;;;;;11.55;5.70;;;;;;;;;;5076675;28;20052;-79
2022/12/05 00:21:06;;;;;;;9.80;5.95;;;;;;;;;;5075198;28;20065;-77
2022/12/05 00:23:33;;;;;;;10.20;5.78;;;;;;;;;;5045136;28;20039;-78
2022/12/05 00:26:06;;;;;;;10.63;6.00;;;;;;;;;;5048427;28;20505;-78
2022/12/05 00:28:33;;;;;;;10.60;6.13;;;;;;;;;;5066274;28;20020;-78
2022/12/05 00:31:06;;;;;;;8.50;5.57;;;;;;;;;;5070594;28;20095;-78
2022/12/05 00:33:32;;;;;;;10.55;5.95;;;;;;;;;;5059444;28;20493;-78
2022/12/05 00:36:02;;;;;;;11.10;6.43;;;;;;;;;;5064799;28;20386;-79
2022/12/05 00:38:28;;;;;;;10.63;6.93;;;;;;;;;;5073431;28;20492;-77
2022/12/05 00:40:54;;;;;;;12.35;7.80;;;;;;;;;;5079218;28;20031;-78
2022/12/05 00:43:20;;;;;;;11.85;6.53;;;;;;;;;;5075757;28;20027;-78
2022/12/05 00:45:46;;;;;;;14.38;6.85;;;;;;;;;;5070805;28;20028;-78
2022/12/05 00:48:12;;;;;;;12.95;7.13;;;;;;;;;;5049013;28;20017;-78
2022/12/05 00:50:38;;;;;;;10.27;6.55;;;;;;;;;;5053040;28;20024;-78
2022/12/05 00:53:04;;;;;;;14.43;7.63;;;;;;;;;;5064067;28;20024;-78
2022/12/05 00:55:30;;;;;;;15.50;6.75;;;;;;;;;;5066078;28;20052;-78
2022/12/05 00:57:56;;;;;;;10.73;7.13;;;;;;;;;;5067969;28;20033;-78
2022/12/05 01:00:22;;;;;;;12.40;6.97;;;;;;;;;;5052735;28;20029;-78
2022/12/05 01:02:48;;;;;;;10.98;6.53;;;;;;;;;;5074981;28;20032;-78
2022/12/05 01:05:14;;;;;;;9.75;6.03;;;;;;;;;;5069585;28;20016;-78
2022/12/05 01:07:40;;;;;;;12.48;6.07;;;;;;;;;;5065284;28;20032;-78
2022/12/05 01:10:07;;;;;;;9.30;5.72;;;;;;;;;;5079461;28;20029;-78
2022/12/05 01:12:33;;;;;;;13.13;6.00;;;;;;;;;;5074091;28;20029;-77
2022/12/05 01:14:59;;;;;;;8.15;5.18;;;;;;;;;;5070633;28;20035;-79
2022/12/05 01:17:25;;;;;;;6.10;5.20;;;;;;;;;;5074196;28;20037;-79
2022/12/05 01:19:51;;;;;;;7.70;5.93;;;;;;;;;;5070331;28;20292;-78
2022/12/05 01:22:18;;;;;;;9.52;5.30;;;;;;;;;;5076274;28;20532;-78
2022/12/05 01:24:44;;;;;;;11.48;5.75;;;;;;;;;;5071636;28;20089;-78
2022/12/05 01:27:10;;;;;;;10.57;5.00;;;;;;;;;;5066873;28;20081;-78
2022/12/05 01:29:36;;;;;;;9.27;5.38;;;;;;;;;;5069933;28;20016;-77
2022/12/05 01:32:03;;;;;;;10.55;6.05;;;;;;;;;;5089088;28;20028;-78
2022/12/05 01:34:29;;;;;;;7.68;5.32;;;;;;;;;;5070810;28;20028;-78
2022/12/05 01:36:55;;;;;;;9.70;5.50;;;;;;;;;;5069038;28;20497;-78
2022/12/05 01:39:21;;;;;;;7.35;4.55;;;;;;;;;;5074433;28;20442;-78
2022/12/05 01:41:48;;;;;;;10.23;4.32;;;;;;;;;;5088530;28;20082;-78
2022/12/05 01:44:14;;;;;;;5.95;4.57;;;;;;;;;;5086411;28;20508;-78
2022/12/05 01:46:45;;;;;;;8.02;4.40;;;;;;;;;;5073124;28;20439;-77
2022/12/05 01:49:13;;;;;;;8.70;5.13;;;;;;;;;;5071174;28;20021;-78
2022/12/05 01:51:40;;;;;;;6.00;4.07;;;;;;;;;;5060262;28;20095;-78
2022/12/05 01:54:10;;;;;;;8.70;4.32;;;;;;;;;;5069588;28;20051;-78
2022/12/05 01:56:36;;;;;;;8.00;4.05;;;;;;;;;;5071288;28;20036;-79
2022/12/05 01:59:03;;;;;;;7.60;4.38;;;;;;;;;;5051711;28;20025;-79
2022/12/05 02:01:29;;;;;;;7.40;4.25;;;;;;;;;;5072785;28;20121;-79
2022/12/05 02:03:57;;;;;;;7.57;4.32;;;;;;;;;;5067400;28;20033;-77
2022/12/05 02:06:23;;;;;;;5.93;3.88;;;;;;;;;;5069110;28;20690;-78
2022/12/05 02:08:50;;;;;;;9.57;4.03;;;;;;;;;;5070358;28;20086;-77
2022/12/05 02:11:16;;;;;;;6.35;4.05;;;;;;;;;;5068779;28;20017;-78
2022/12/05 02:13:45;;;;;;;8.93;4.90;;;;;;;;;;5073137;28;20032;-78
2022/12/05 02:16:23;;;;;;;6.05;4.05;;;;;;;;;;5074309;28;20111;-78
2022/12/05 02:18:52;;;;;;;4.80;3.38;;;;;;;;;;5070762;28;20071;-78
2022/12/05 02:21:21;;;;;;;7.72;4.68;;;;;;;;;;5078844;28;20066;-77
2022/12/05 02:23:50;;;;;;;6.20;3.90;;;;;;;;;;5075475;28;20111;-78
2022/12/05 02:26:26;;;;;;;5.85;3.40;;;;;;;;;;5068963;28;20066;-79
2022/12/05 02:29:07;;;;;;;5.53;3.90;;;;;;;;;;5067637;28;20028;-78
2022/12/05 02:31:43;;;;;;;7.55;4.40;;;;;;;;;;5070999;28;20449;-78
2022/12/05 02:34:09;;;;;;;4.45;3.38;;;;;;;;;;5068606;28;20052;-79
2022/12/05 02:36:58;;;;;;;8.07;3.67;;;;;;;;;;5068809;28;20032;-77
2022/12/05 02:39:24;;;;;;;7.15;3.58;;;;;;;;;;5057065;28;20715;-78
2022/12/05 02:41:54;;;;;;;6.90;4.00;;;;;;;;;;5056750;28;20471;-78
2022/12/05 02:44:29;;;;;;;4.78;3.35;;;;;;;;;;5071091;28;20483;-78
2022/12/05 02:46:55;;;;;;;7.50;4.40;;;;;;;;;;5047537;28;20036;-78
2022/12/05 02:49:24;;;;;;;5.18;4.10;;;;;;;;;;5066037;28;20031;-78
2022/12/05 02:51:52;;;;;;;5.32;3.55;;;;;;;;;;5073404;28;20043;-78
2022/12/05 02:54:23;;;;;;;7.15;3.42;;;;;;;;;;5065116;28;20027;-78
2022/12/05 02:56:51;;;;;;;5.20;3.17;;;;;;;;;;5072587;28;20078;-78
2022/12/05 02:59:17;;;;;;;5.00;3.67;;;;;;;;;;5079593;28;20020;-78
2022/12/05 03:01:45;;;;;;;5.20;3.88;;;;;;;;;;5069073;28;20364;-78
2022/12/05 03:04:12;;;;;;;5.47;3.80;;;;;;;;;;5058589;28;20025;-78
2022/12/05 03:06:58;;;;;;;5.15;3.78;;;;;;;;;;5065937;28;20736;-78
2022/12/05 03:09:28;;;;;;;5.13;3.92;;;;;;;;;;5082446;28;20508;-78
2022/12/05 03:11:59;;;;;;;8.10;4.07;;;;;;;;;;5085797;28;20033;-77
2022/12/05 03:14:28;;;;;;;7.20;4.10;;;;;;;;;;5070697;28;20044;-77
2022/12/05 03:16:56;;;;;;;5.00;3.88;;;;;;;;;;5068623;28;20074;-78
2022/12/05 03:19:45;;;;;;;7.43;4.22;;;;;;;;;;5072572;28;20083;-78
2022/12/05 03:22:24;;;;;;;5.32;3.58;;;;;;;;;;5058433;28;20033;-77
2022/12/05 03:24:50;;;;;;;6.13;3.70;;;;;;;;;;5077599;28;20423;-78
2022/12/05 03:27:22;;;;;;;6.93;3.90;;;;;;;;;;5054725;28;20107;-78
2022/12/05 03:30:01;;;;;;;6.00;3.65;;;;;;;;;;5068193;28;20024;-78
2022/12/05 03:32:34;;;;;;;6.68;3.92;;;;;;;;;;5069342;28;20459;-77
2022/12/05 03:35:03;;;;;;;6.20;4.30;;;;;;;;;;5076418;28;20028;-78
2022/12/05 03:37:49;;;;;;;7.18;3.85;;;;;;;;;;5080016;28;20146;-78
2022/12/05 03:40:21;;;;;;;7.35;4.18;;;;;;;;;;5067185;28;20032;-77
2022/12/05 03:42:52;;;;;;;10.90;5.28;;;;;;;;;;5064062;28;20032;-77
2022/12/05 03:45:22;;;;;;;6.25;3.97;;;;;;;;;;5069201;28;20028;-78
2022/12/05 03:47:51;;;;;;;6.68;3.88;;;;;;;;;;5059804;28;20123;-78
2022/12/05 03:50:23;;;;;;;6.22;4.18;;;;;;;;;;5072708;28;20099;-78
2022/12/05 03:52:53;;;;;;;8.10;4.53;;;;;;;;;;5066120;28;20013;-78
2022/12/05 03:55:21;;;;;;;6.95;4.82;;;;;;;;;;5062382;28;20008;-78
2022/12/05 03:58:17;;;;;;;6.13;4.40;;;;;;;;;;5064621;28;20117;-78
2022/12/05 04:00:44;;;;;;;12.60;5.00;;;;;;;;;;5056616;28;20426;-78
2022/12/05 04:03:18;;;;;;;6.90;4.25;;;;;;;;;;5060676;28;20020;-79
2022/12/05 04:05:46;;;;;;;9.20;4.88;;;;;;;;;;5075111;28;20104;-78
2022/12/05 04:08:22;;;;;;;8.02;4.85;;;;;;;;;;5060417;28;20029;-79
2022/12/05 04:10:49;;;;;;;8.10;5.10;;;;;;;;;;5053909;28;20033;-78
2022/12/05 04:13:18;;;;;;;6.18;4.43;;;;;;;;;;5068867;28;20458;-78
2022/12/05 04:18:36;;;;;;;5.88;4.40;;;;;;;;;;5071866;28;20075;-78
2022/12/05 04:25:31;;;;;;;10.32;4.50;;;;;;;;;;5073441;28;20086;-77
2022/12/05 04:26:36;;;;;;;7.90;4.80;;;;;;;;;;5070686;28;20036;-78
2022/12/05 04:29:05;;;;;;;9.02;4.88;;;;;;;;;;5066400;28;20464;-79
2022/12/05 04:31:39;;;;;;;7.55;4.25;;;;;;;;;;5066817;28;20016;-77
2022/12/05 04:34:06;;;;;;;6.65;4.55;;;;;;;;;;5061447;28;20379;-78
2022/12/05 04:36:39;;;;;;;8.93;4.47;;;;;;;;;;5055831;28;20029;-77
2022/12/05 04:39:09;;;;;;;7.63;5.07;;;;;;;;;;5064413;28;20025;-78
2022/12/05 04:41:38;;;;;;;7.10;5.70;;;;;;;;;;5077960;28;20377;-78
2022/12/05 04:44:09;;;;;;;8.45;5.32;;;;;;;;;;5080739;28;20039;-78
2022/12/05 04:46:36;;;;;;;7.82;4.82;;;;;;;;;;5081652;28;20078;-78
2022/12/05 04:49:04;;;;;;;8.20;4.47;;;;;;;;;;5073040;28;20040;-79
2022/12/05 04:51:33;;;;;;;6.85;4.80;;;;;;;;;;5072540;28;20482;-78
2022/12/05 04:54:02;;;;;;;9.63;4.90;;;;;;;;;;5073666;28;20025;-78
2022/12/05 04:56:30;;;;;;;8.27;5.55;;;;;;;;;;5082119;28;20089;-78
2022/12/05 04:58:56;;;;;;;7.18;4.55;;;;;;;;;;5076026;28;20062;-79
2022/12/05 05:01:28;;;;;;;10.23;5.32;;;;;;;;;;5073820;28;20063;-78
2022/12/05 05:03:59;;;;;;;8.00;4.72;;;;;;;;;;5054686;28;20029;-77
2022/12/05 05:06:26;;;;;;;7.28;4.82;;;;;;;;;;5068872;28;20056;-78
2022/12/05 05:08:53;;;;;;;7.18;4.78;;;;;;;;;;5069036;28;20415;-77
2022/12/05 05:11:31;;;;;;;6.57;4.45;;;;;;;;;;5076898;28;20017;-77
2022/12/05 05:13:57;;;;;;;6.70;4.75;;;;;;;;;;5073080;28;20445;-77
2022/12/05 05:16:25;;;;;;;7.57;4.35;;;;;;;;;;5071793;28;20032;-77
2022/12/05 05:18:51;;;;;;;9.48;4.78;;;;;;;;;;5051243;28;20094;-78
2022/12/05 05:21:20;;;;;;;7.72;3.63;;;;;;;;;;5073056;28;20124;-78
2022/12/05 05:23:46;;;;;;;5.53;3.38;;;;;;;;;;5073551;28;20033;-77
2022/12/05 05:26:13;;;;;;;8.30;3.78;;;;;;;;;;5073852;28;20115;-76
2022/12/05 05:28:39;;;;;;;7.70;3.60;;;;;;;;;;5074758;28;20040;-78
2022/12/05 05:31:06;;;;;;;6.25;3.05;;;;;;;;;;5069988;28;20469;-78
2022/12/05 05:33:32;;;;;;;3.75;2.88;;;;;;;;;;5063817;28;20549;-78
2022/12/05 05:36:01;;;;;;;8.25;3.90;;;;;;;;;;5072123;28;20028;-77
2022/12/05 05:38:28;;;;;;;4.85;3.10;;;;;;;;;;5058669;28;20028;-78
2022/12/05 05:40:54;;;;;;;10.10;4.10;;;;;;;;;;5059309;28;20040;-78
2022/12/05 05:43:20;;;;;;;6.13;3.72;;;;;;;;;;5077480;28;20035;-78
2022/12/05 05:45:46;;;;;;;6.30;4.32;;;;;;;;;;5075584;28;20478;-79
2022/12/05 05:48:12;;;;;;;5.68;3.58;;;;;;;;;;5089754;28;20024;-76
2022/12/05 05:50:38;;;;;;;8.43;3.78;;;;;;;;;;5071472;28;20024;-78
2022/12/05 05:53:04;;;;;;;5.80;3.88;;;;;;;;;;5070141;28;20509;-77
2022/12/05 05:55:30;;;;;;;4.90;3.08;;;;;;;;;;5090453;28;20087;-79
2022/12/05 05:57:56;;;;;;;6.22;3.85;;;;;;;;;;5079442;28;20486;-77
2022/12/05 06:00:22;;;;;;;7.03;4.05;;;;;;;;;;5057843;28;20090;-79
2022/12/05 06:02:48;;;;;;;5.10;2.83;;;;;;;;;;5070861;28;20096;-78
2022/12/05 06:05:14;;;;;;;4.65;3.50;;;;;;;;;;5076025;28;20025;-79
2022/12/05 06:07:41;;;;;;;6.03;3.38;;;;;;;;;;5072602;28;20020;-78
2022/12/05 06:10:07;;;;;;;4.60;3.10;;;;;;;;;;5088513;28;20089;-77
2022/12/05 06:12:33;;;;;;;6.88;3.60;;;;;;;;;;5073120;28;20048;-77
2022/12/05 06:14:59;;;;;;;7.30;3.60;;;;;;;;;;5072462;28;20051;-78
2022/12/05 06:17:25;;;;;;;7.47;3.95;;;;;;;;;;5064039;28;20049;-77
2022/12/05 06:19:51;;;;;;;9.60;3.58;;;;;;;;;;5056806;28;20017;-78
2022/12/05 06:22:17;;;;;;;7.53;3.83;;;;;;;;;;5090076;28;20025;-77
2022/12/05 06:24:44;;;;;;;8.18;3.90;;;;;;;;;;5051238;28;20102;-78
2022/12/05 06:27:10;;;;;;;8.57;3.90;;;;;;;;;;5051633;28;20025;-78
2022/12/05 06:29:36;;;;;;;6.80;4.10;;;;;;;;;;5051887;28;20047;-79
2022/12/05 06:32:02;;;;;;;9.85;4.80;;;;;;;;;;5053215;28;20033;-78
2022/12/05 06:34:31;;;;;;;6.20;4.55;;;;;;;;;;5055550;28;20078;-78
2022/12/05 06:36:57;;;;;;;9.32;4.32;;;;;;;;;;5047751;28;20021;-78
2022/12/05 06:39:23;;;;;;;7.00;3.40;;;;;;;;;;5046351;28;20022;-79
2022/12/05 06:41:49;;;;;;;7.28;4.00;;;;;;;;;;5050362;28;20290;-78
2022/12/05 06:44:15;;;;;;;8.40;5.00;;;;;;;;;;5052392;28;20044;-78
2022/12/05 06:46:41;;;;;;;7.68;3.53;;;;;;;;;;5042087;28;20364;-78
2022/12/05 06:49:09;;;;;;;5.68;3.13;;;;;;;;;;5049215;28;20028;-78
2022/12/05 06:51:36;;;;;;;7.28;3.63;;;;;;;;;;5048702;28;20090;-78
2022/12/05 06:54:02;;;;;;;7.47;2.97;;;;;;;;;;5046635;28;20028;-79
2022/12/05 06:56:28;;;;;;;6.53;3.88;;;;;;;;;;5046561;28;20029;-77
2022/12/05 06:58:55;;;;;;;6.22;3.40;;;;;;;;;;5049557;28;20126;-78
2022/12/05 07:01:40;;;;;;;9.60;3.28;;;;;;;;;;5054225;28;20029;-78
2022/12/05 07:04:23;;;;;;;6.38;3.80;;;;;;;;;;5047079;28;20037;-78
2022/12/05 07:06:52;;;;;;;5.43;3.63;;;;;;;;;;5036311;28;20030;-79
2022/12/05 07:09:19;;;;;;;6.53;3.53;;;;;;;;;;5044151;28;20482;-78
2022/12/05 07:11:47;;;;;;;5.00;3.05;;;;;;;;;;5045917;28;20025;-79
2022/12/05 07:14:13;;;;;;;5.35;3.13;;;;;;;;;;5046192;28;20383;-78
2022/12/05 07:16:39;;;;;;;7.18;3.92;;;;;;;;;;5049932;28;20028;-77
2022/12/05 07:19:05;;;;;;;3.08;2.60;;;;;;;;;;5071545;28;20068;-78
2022/12/05 07:21:32;;;;;;;4.20;2.78;;;;;;;;;;5053322;28;20057;-78
2022/12/05 07:23:58;;;;;;;6.05;2.78;;;;;;;;;;5053179;28;20036;-78
2022/12/05 07:26:24;;;;;;;10.05;3.60;;;;;;;;;;5069012;28;20075;-79
2022/12/05 07:28:50;;;;;;;4.95;3.20;;;;;;;;;;5053547;28;20117;-79
2022/12/05 07:31:21;;;;;;;4.28;3.08;;;;;;;;;;5068041;28;20028;-79
2022/12/05 07:33:48;;;;;;;6.97;3.20;;;;;;;;;;5073602;28;20474;-79
2022/12/05 07:36:16;;;;;;;9.32;3.15;;;;;;;;;;5063136;28;20060;-78
2022/12/05 07:38:42;;;;;;;4.65;2.70;;;;;;;;;;5079635;28;20058;-78
2022/12/05 07:41:09;;;;;;;5.22;2.85;;;;;;;;;;5080300;28;20059;-78
2022/12/05 07:43:35;;;;;;;5.75;3.00;;;;;;;;;;5071190;28;20028;-79
2022/12/05 07:46:05;;;;;;;5.10;2.47;;;;;;;;;;5073279;28;20052;-82
2022/12/05 07:48:32;;;;;;;5.20;3.08;;;;;;;;;;5065913;28;20031;-78
2022/12/05 07:50:59;;;;;;;13.30;3.58;;;;;;;;;;5070832;28;20575;-80
2022/12/05 07:53:26;;;;;;;6.22;3.45;;;;;;;;;;5060967;28;20579;-80
2022/12/05 07:55:52;;;;;;;5.38;3.22;;;;;;;;;;5074245;28;20040;-79
2022/12/05 07:58:18;;;;;;;4.05;2.90;;;;;;;;;;5076550;28;20016;-80
2022/12/05 08:00:44;;;;;;;4.88;3.38;;;;;;;;;;5076001;28;20029;-79
2022/12/05 08:03:11;;;;;;;5.70;3.28;;;;;;;;;;5080464;28;20082;-81
2022/12/05 08:05:37;;;;;;;5.45;3.22;;;;;;;;;;5066837;28;20096;-81
2022/12/05 08:08:03;;;;;;;4.70;2.65;;;;;;;;;;5090743;28;20016;-82
2022/12/05 08:10:29;;;;;;;7.50;3.03;;;;;;;;;;5081926;28;20458;-80
2022/12/05 08:12:55;;;;;;;5.82;3.10;;;;;;;;;;5076653;28;20071;-80
2022/12/05 08:15:21;;;;;;;4.07;2.72;;;;;;;;;;5075943;28;20055;-82
2022/12/05 08:17:47;;;;;;;5.63;2.72;;;;;;;;;;5075819;28;20565;-79
2022/12/05 08:20:14;;;;;;;3.75;2.30;;;;;;;;;;5052857;28;20033;-79
2022/12/05 08:22:40;;;;;;;3.85;2.50;;;;;;;;;;5053746;28;20067;-80
2022/12/05 08:25:06;;;;;;;4.40;2.72;;;;;;;;;;5054229;28;20029;-78
2022/12/05 08:27:32;;;;;;;5.60;2.38;;;;;;;;;;5091040;28;20032;-79
2022/12/05 08:30:02;;;;;;;6.13;2.78;;;;;;;;;;5053356;28;20025;-80
2022/12/05 08:32:29;;;;;;;4.25;2.65;;;;;;;;;;5087703;28;20025;-82
2022/12/05 08:34:55;;;;;;;4.40;2.40;;;;;;;;;;5087296;28;20029;-80
2022/12/05 08:37:21;;;;;;;8.35;3.15;;;;;;;;;;5052236;28;20029;-79
2022/12/05 08:39:48;;;;;;;5.68;3.20;;;;;;;;;;5054473;28;20088;-78
2022/12/05 08:42:14;;;;;;;3.97;2.70;;;;;;;;;;5056187;28;20064;-79
2022/12/05 08:44:40;;;;;;;4.53;2.50;;;;;;;;;;5043578;28;20032;-79
2022/12/05 08:47:06;;;;;;;4.53;2.80;;;;;;;;;;5047541;28;20102;-79
2022/12/05 08:49:32;;;;;;;4.43;2.58;;;;;;;;;;5046358;28;20048;-79
2022/12/05 08:51:58;;;;;;;4.97;2.50;;;;;;;;;;5053327;28;20036;-79
2022/12/05 08:54:25;;;;;;;4.18;3.58;;;;;;;;;;5048122;28;20033;-78
2022/12/05 08:56:51;;;;;;;6.60;2.33;;;;;;;;;;5053915;28;20114;-78
2022/12/05 08:59:18;;;;;;;5.85;2.17;;;;;;;;;;5086123;28;20082;-78
2022/12/05 09:01:45;;;;;;;3.67;2.50;;;;;;;;;;5087122;28;20397;-79
2022/12/05 09:04:11;;;;;;;4.22;2.50;;;;;;;;;;5091728;28;20025;-79
2022/12/05 09:06:39;;;;;;;3.45;2.00;;;;;;;;;;5059783;28;20035;-79
2022/12/05 09:09:06;;;;;;;4.43;2.80;;;;;;;;;;5091891;28;20540;-79
2022/12/05 09:11:34;;;;;;;5.97;2.20;;;;;;;;;;5055355;28;20029;-80
2022/12/05 09:14:01;;;;;;;4.07;2.10;;;;;;;;;;5053194;28;20436;-80
2022/12/05 09:16:30;;;;;;;2.38;1.70;;;;;;;;;;5062854;28;20032;-81
2022/12/05 09:18:56;;;;;;;3.92;2.33;;;;;;;;;;5077644;28;20052;-79
2022/12/05 09:21:27;;;;;;;3.55;2.03;;;;;;;;;;5068130;28;20031;-80
2022/12/05 09:23:53;;;;;;;4.78;2.03;;;;;;;;;;5073042;28;20051;-79
2022/12/05 09:26:21;;;;;;;4.63;2.15;;;;;;;;;;5066386;28;20032;-79
2022/12/05 09:28:48;;;;;;;4.88;2.28;;;;;;;;;;5087246;28;20051;-79
2022/12/05 09:31:15;;;;;;;5.22;2.10;;;;;;;;;;5086784;28;20109;-80
2022/12/05 09:33:42;;;;;;;6.32;2.38;;;;;;;;;;5078203;28;20017;-79
2022/12/05 09:36:11;;;;;;;4.18;2.28;;;;;;;;;;5080003;28;20025;-81
2022/12/05 09:38:37;;;;;;;5.18;3.13;;;;;;;;;;5086185;28;20032;-79
2022/12/05 09:41:10;;;;;;;3.03;2.10;;;;;;;;;;5094603;28;20055;-80
2022/12/05 09:43:41;;;;;;;3.78;2.78;;;;;;;;;;5094674;28;20046;-80
2022/12/05 09:46:30;;;;;;;6.82;3.28;;;;;;;;;;5095364;28;20032;-79
2022/12/05 09:48:58;;;;;;;5.90;3.53;;;;;;;;;;5094276;28;20029;-80
2022/12/05 09:51:25;;;;;;;3.55;1.85;;;;;;;;;;5093337;28;20016;-80
2022/12/05 09:53:53;;;;;;;3.15;2.42;;;;;;;;;;5088753;28;20035;-81
2022/12/05 09:56:25;;;;;;;6.22;2.97;;;;;;;;;;5070924;28;20084;-80
2022/12/05 09:58:52;;;;;;;5.55;2.28;;;;;;;;;;5090477;28;20035;-82
2022/12/05 10:01:25;;;;;;;3.40;2.00;;;;;;;;;;5088398;28;20315;-82
2022/12/05 10:03:57;;;;;;;5.60;2.20;;;;;;;;;;5093566;28;20414;-81
2022/12/05 10:06:26;;;;;;;5.68;3.10;;;;;;;;;;5087457;28;20021;-79
2022/12/05 10:09:08;;;;;;;8.98;3.30;;;;;;;;;;5080161;28;20020;-81
2022/12/05 10:11:43;;;;;;;6.30;3.60;;;;;;;;;;5083570;28;20025;-82
2022/12/05 10:14:18;;;;;;;5.70;2.90;;;;;;;;;;5087382;28;20023;-80
2022/12/05 10:16:53;;;;;;;6.38;3.38;;;;;;;;;;5084234;28;20025;-80
2022/12/05 10:19:24;;;;;;;7.90;3.20;;;;;;;;;;5075606;28;20044;-79
2022/12/05 10:21:59;;;;;;;6.88;2.70;;;;;;;;;;5088022;28;20127;-79
2022/12/05 10:24:35;;;;;;;5.47;2.90;;;;;;;;;;5084950;28;20573;-78
2022/12/05 10:27:13;;;;;;;6.15;2.55;;;;;;;;;;5089026;28;20075;-79
2022/12/05 10:29:45;;;;;;;5.88;3.55;;;;;;;;;;5066243;28;20024;-80
2022/12/05 10:32:43;;;;;;;6.22;2.50;;;;;;;;;;5075166;28;20025;-80
2022/12/05 10:35:17;;;;;;;7.45;2.88;;;;;;;;;;5038043;28;20136;-81
2022/12/05 10:37:51;;;;;;;4.75;2.85;;;;;;;;;;5082492;28;20482;-79
2022/12/05 10:40:17;;;;;;;5.22;2.63;;;;;;;;;;5065000;28;20070;-80
2022/12/05 10:42:44;;;;;;;4.25;3.05;;;;;;;;;;5078847;28;20024;-78
2022/12/05 10:45:15;;;;;;;9.40;3.22;;;;;;;;;;5061937;28;20029;-80
2022/12/05 10:47:41;;;;;;;5.50;2.58;;;;;;;;;;5075547;28;20036;-80
2022/12/05 10:50:19;;;;;;;5.25;3.15;;;;;;;;;;5059443;28;20077;-80
2022/12/05 10:52:46;;;;;;;6.32;3.53;;;;;;;;;;5074983;28;20025;-81
2022/12/05 10:55:13;;;;;;;5.28;3.10;;;;;;;;;;5060767;28;20017;-81
2022/12/05 10:57:39;;;;;;;4.28;2.67;;;;;;;;;;5070034;28;20029;-82
2022/12/05 11:00:11;;;;;;;5.72;3.60;;;;;;;;;;5083190;28;20028;-79
2022/12/05 11:02:38;;;;;;;4.07;3.25;;;;;;;;;;5085277;28;20023;-80
2022/12/05 11:05:04;;;;;;;4.07;2.25;;;;;;;;;;5081160;28;20658;-81
2022/12/05 11:07:35;;;;;;;5.93;2.40;;;;;;;;;;5081049;28;20486;-79
2022/12/05 11:10:02;;;;;;;5.30;2.92;;;;;;;;;;5077895;28;20108;-79
2022/12/05 11:12:35;;;;;;;6.13;2.70;;;;;;;;;;5080861;28;20035;-81
2022/12/05 11:15:18;;;;;;;5.18;3.85;;;;;;;;;;5066178;28;20028;-81
2022/12/05 11:17:45;;;;;;;6.63;3.30;;;;;;;;;;5075084;28;20075;-81
2022/12/05 11:20:17;;;;;;;6.35;3.15;;;;;;;;;;5056717;28;20055;-80
2022/12/05 11:22:45;;;;;;;8.35;2.67;;;;;;;;;;5056131;28;20517;-79
2022/12/05 11:25:28;;;;;;;5.93;2.85;;;;;;;;;;5056009;28;20037;-79
2022/12/05 11:27:55;;;;;;;4.47;2.97;;;;;;;;;;5069549;28;20079;-79
2022/12/05 11:30:23;;;;;;;5.82;3.70;;;;;;;;;;5067741;28;20086;-80
2022/12/05 11:32:50;;;;;;;5.70;4.28;;;;;;;;;;5072181;28;20029;-80
2022/12/05 11:35:23;;;;;;;7.70;4.70;;;;;;;;;;5090420;28;20022;-81
2022/12/05 11:38:00;;;;;;;4.68;2.15;;;;;;;;;;5107335;28;20052;-81
2022/12/05 11:40:38;;;;;;;5.72;3.72;;;;;;;;;;5074454;28;20056;-80
2022/12/05 11:43:23;;;;;;;2.80;2.50;;;;;;;;;;5090702;28;20032;-80
2022/12/05 11:46:01;;;;;;;5.27;2.30;;;;;;;;;;5073233;28;20025;-82
2022/12/05 11:48:44;;;;;;;8.70;2.60;;;;;;;;;;5071941;28;20072;-81
2022/12/05 11:51:40;;;;;;;7.05;3.22;;;;;;;;;;5075691;28;20025;-80
2022/12/05 11:54:24;;;;;;;3.10;2.60;;;;;;;;;;5057205;28;20033;-80
2022/12/05 11:56:53;;;;;;;4.40;2.95;;;;;;;;;;5087054;28;20026;-80
2022/12/05 11:59:32;;;;;;;3.47;2.63;;;;;;;;;;5069982;28;20021;-81
2022/12/05 12:02:12;;;;;;;2.72;2.00;;;;;;;;;;5068130;28;20117;-82
2022/12/05 12:04:53;;;;;;;4.72;2.45;;;;;;;;;;5064576;28;20036;-81
2022/12/05 12:07:22;;;;;;;9.00;4.70;;;;;;;;;;5066301;28;20087;-78
2022/12/05 12:09:48;;;;;;;7.18;3.10;;;;;;;;;;5066332;28;20059;-81
2022/12/05 12:12:23;;;;;;;7.88;3.70;;;;;;;;;;5064382;28;20089;-81
2022/12/05 12:14:53;;;;;;;9.05;4.13;;;;;;;;;;5064051;28;20103;-80
2022/12/05 12:17:37;;;;;;;7.70;3.35;;;;;;;;;;5063983;28;20100;-79
2022/12/05 12:20:15;;;;;;;6.55;3.60;;;;;;;;;;5060720;28;20040;-78
2022/12/05 12:22:45;;;;;;;4.15;2.88;;;;;;;;;;5067945;28;20032;-81
2022/12/05 12:25:21;;;;;;;3.13;2.30;;;;;;;;;;5067699;28;20501;-79
2022/12/05 12:27:56;;;;;;;10.18;4.63;;;;;;;;;;5078503;28;20441;-78
2022/12/05 12:30:28;;;;;;;4.93;2.90;;;;;;;;;;5070916;28;20082;-79
2022/12/05 12:33:06;;;;;;;5.03;2.65;;;;;;;;;;5065929;28;20046;-80
2022/12/05 12:35:46;;;;;;;6.28;3.53;;;;;;;;;;5077329;28;20130;-79
2022/12/05 12:38:18;;;;;;;5.93;3.00;;;;;;;;;;5071619;28;20668;-80
2022/12/05 12:40:52;;;;;;;2.45;1.90;;;;;;;;;;5072878;28;20024;-79
2022/12/05 12:43:27;;;;;;;7.85;2.40;;;;;;;;;;5072577;28;20021;-80
2022/12/05 12:46:20;;;;;;;4.85;3.13;;;;;;;;;;5077508;28;20207;-80
2022/12/05 12:48:55;;;;;;;7.00;2.60;;;;;;;;;;5062741;28;20040;-80
2022/12/05 12:51:21;;;;;;;3.70;2.10;;;;;;;;;;5079335;28;20475;-79
2022/12/05 12:53:57;;;;;;;3.35;1.92;;;;;;;;;;5072609;28;20088;-81
2022/12/05 12:56:37;;;;;;;6.88;2.17;;;;;;;;;;5091351;22;20324;-74
2022/12/05 12:59:14;;;;;;;6.45;3.28;;;;;;;;;;5011996;28;20041;-74
2022/12/05 13:01:58;;;;;;;6.88;3.15;;;;;;;;;;5034110;28;20045;-77
2022/12/05 13:04:53;;;;;;;10.85;5.57;;;;;;;;;;5011504;28;20060;-77
2022/12/05 13:07:23;;;;;;;13.93;8.13;;;;;;;;;;5002787;28;20072;-77
2022/12/05 13:09:58;;;;;;;7.82;4.15;;;;;;;;;;5034091;28;20041;-73
2022/12/05 13:12:26;;;;;;;15.13;7.80;;;;;;;;;;5011022;28;20025;-77
2022/12/05 13:14:58;;;;;;;6.85;4.97;;;;;;;;;;5032507;28;20328;-77
2022/12/05 13:17:25;;;;;;;7.75;4.20;;;;;;;;;;5031503;28;20042;-77
2022/12/05 13:19:52;;;;;;;5.25;4.00;;;;;;;;;;5013027;28;20435;-74
2022/12/05 13:22:19;;;;;;;12.35;5.60;;;;;;;;;;5011929;28;20041;-74
2022/12/05 13:24:46;;;;;;;5.93;3.08;;;;;;;;;;5035895;28;20052;-73
2022/12/05 13:27:17;;;;;;;9.40;4.22;;;;;;;;;;5011056;28;20033;-73
2022/12/05 13:29:52;;;;;;;12.05;3.30;;;;;;;;;;5031114;28;20030;-73
2022/12/05 13:32:28;;;;;;;4.95;2.55;;;;;;;;;;5029473;28;20033;-76
2022/12/05 13:34:54;;;;;;;;;;;;;;;;;;5026250;28;20036;-76
2022/12/05 13:43:04;;;;;;;6.45;3.20;;;;;;;;;;5031489;28;20110;-77
2022/12/05 13:45:30;;;;;;;6.97;3.80;;;;;;;;;;5032903;28;20021;-74
2022/12/05 13:47:59;;;;;;;7.80;3.60;;;;;;;;;;5030935;28;20104;-76
2022/12/05 13:50:25;;;;;;;6.18;3.25;;;;;;;;;;5031643;28;20500;-76
2022/12/05 13:52:53;;;;;;;3.58;2.83;;;;;;;;;;5009620;28;20030;-75
2022/12/05 13:55:33;;;;;;;8.73;2.90;;;;;;;;;;5010416;28;20037;-76
2022/12/05 13:58:00;;;;;;;5.20;2.55;;;;;;;;;;5027671;28;20046;-76
2022/12/05 14:00:28;;;;;;;8.70;3.17;;;;;;;;;;5012067;28;20030;-73
2022/12/05 14:02:56;;;;;;;4.20;2.17;;;;;;;;;;5028575;28;20006;-74
2022/12/05 14:05:24;;;;;;;7.68;3.05;;;;;;;;;;5030302;28;20025;-73
2022/12/05 14:07:54;;;;;;;7.95;3.08;;;;;;;;;;5028608;28;20036;-74
2022/12/05 14:10:22;;;;;;;5.80;2.53;;;;;;;;;;5012583;28;20426;-74
2022/12/05 14:12:55;;;;;;;4.32;2.60;;;;;;;;;;5028454;28;20034;-74
2022/12/05 14:15:25;;;;;;;4.53;3.45;;;;;;;;;;5032475;28;20626;-74
2022/12/05 14:17:55;;;;;;;3.28;2.80;;;;;;;;;;5030017;28;20037;-76
2022/12/05 14:20:27;;;;;;;4.85;3.90;;;;;;;;;;5030700;28;20067;-74
2022/12/05 14:22:53;;;;;;;6.50;3.63;;;;;;;;;;5028936;28;20029;-77
2022/12/05 14:25:38;;;;;;;4.28;2.92;;;;;;;;;;5012210;28;20481;-74
2022/12/05 14:28:04;;;;;;;4.88;2.92;;;;;;;;;;5028687;28;20041;-74
2022/12/05 14:30:43;;;;;;;4.65;2.72;;;;;;;;;;5033065;28;20035;-74
2022/12/05 14:33:14;;;;;;;5.05;2.45;;;;;;;;;;5030164;28;20060;-74
2022/12/05 14:35:51;;;;;;;5.40;3.20;;;;;;;;;;5014098;28;20029;-74
2022/12/05 14:38:22;;;;;;;5.50;3.15;;;;;;;;;;5031414;28;20033;-74
2022/12/05 14:40:48;;;;;;;3.55;2.58;;;;;;;;;;5034252;28;20025;-77
2022/12/05 14:43:14;;;;;;;7.60;4.43;;;;;;;;;;5013922;28;20497;-78
2022/12/05 14:45:46;;;;;;;8.82;5.80;;;;;;;;;;5006851;28;20056;-77
2022/12/05 14:48:12;;;;;;;9.15;4.32;;;;;;;;;;5011758;28;20018;-74
2022/12/05 14:50:43;;;;;;;11.85;7.45;;;;;;;;;;5014222;28;20032;-74
2022/12/05 14:53:22;;;;;;;6.72;4.10;;;;;;;;;;5035829;28;20027;-79
2022/12/05 14:56:00;;;;;;;8.40;4.93;;;;;;;;;;5033699;28;20064;-74
2022/12/05 14:58:35;;;;;;;6.63;4.25;;;;;;;;;;5032515;28;20045;-74
2022/12/05 15:01:13;;;;;;;13.45;6.32;;;;;;;;;;5032131;28;20071;-74
2022/12/05 15:03:55;;;;;;;16.02;10.50;;;;;;;;;;5032130;28;20022;-74
2022/12/05 15:06:24;;;;;;;11.10;6.10;;;;;;;;;;5011660;28;20064;-74
2022/12/05 15:08:51;;;;;;;10.38;6.07;;;;;;;;;;5010802;28;20033;-74